createdAt,value
2018-07-20T00:00:20.420Z,101321.89
2018-07-20T00:02:48.576Z,101329.23
2018-07-20T00:05:16.683Z,101324.81
2018-07-20T00:07:44.784Z,101325.75
2018-07-20T00:10:12.900Z,101325.31
2018-07-20T00:12:41.037Z,101324.44
2018-07-20T00:15:09.216Z,101323.42
2018-07-20T00:17:37.348Z,101322.69
2018-07-20T00:20:05.912Z,101322.78
2018-07-20T00:22:34.104Z,101329.88
2018-07-20T00:25:02.248Z,101330.08
2018-07-20T00:27:30.373Z,101327.45
2018-07-20T00:29:58.512Z,101325.00
2018-07-20T00:32:26.673Z,101327.61
2018-07-20T00:34:54.829Z,101321.17
2018-07-20T00:37:22.957Z,101323.63
2018-07-20T00:39:51.080Z,101323.14
2018-07-20T00:42:19.194Z,101319.02
2018-07-20T00:44:47.341Z,101317.80
2018-07-20T00:47:15.464Z,101313.47
2018-07-20T00:49:43.549Z,101313.49
2018-07-20T00:52:11.672Z,101314.56
2018-07-20T00:54:39.825Z,101309.89
2018-07-20T00:57:07.948Z,101312.90
2018-07-20T00:59:36.045Z,101317.17
2018-07-20T01:02:04.189Z,101317.38
2018-07-20T01:04:32.333Z,101320.73
2018-07-20T01:07:00.464Z,101314.63
2018-07-20T01:09:28.600Z,101324.59
2018-07-20T01:11:56.720Z,101323.19
2018-07-20T01:14:24.856Z,101319.27
2018-07-20T01:16:52.988Z,101318.13
2018-07-20T01:19:21.136Z,101318.13
2018-07-20T01:21:49.272Z,101326.69
2018-07-20T01:24:17.409Z,101323.46
2018-07-20T01:26:45.582Z,101325.42
2018-07-20T01:29:13.688Z,101319.29
2018-07-20T01:31:41.796Z,101320.23
2018-07-20T01:34:10.016Z,101311.58
2018-07-20T01:36:38.116Z,101304.55
2018-07-20T01:39:06.898Z,101306.15
2018-07-20T01:41:34.975Z,101303.92
2018-07-20T01:44:03.120Z,101311.08
2018-07-20T01:46:31.331Z,101305.83
2018-07-20T01:48:59.454Z,101295.31
2018-07-20T01:51:27.588Z,101298.91
2018-07-20T01:53:55.730Z,101300.13
2018-07-20T01:56:23.872Z,101296.45
2018-07-20T01:58:52.036Z,101295.55
2018-07-20T02:01:20.157Z,101296.83
2018-07-20T02:03:48.309Z,101289.33
2018-07-20T02:06:16.450Z,101294.50
2018-07-20T02:08:44.593Z,101294.22
2018-07-20T02:11:12.728Z,101295.37
2018-07-20T02:13:40.877Z,101301.90
2018-07-20T02:16:08.987Z,101296.22
2018-07-20T02:18:37.152Z,101290.37
2018-07-20T02:21:05.311Z,101287.44
2018-07-20T02:23:33.432Z,101287.57
2018-07-20T02:26:01.603Z,101285.91
2018-07-20T02:28:29.740Z,101277.70
2018-07-20T02:30:58.325Z,101278.25
2018-07-20T02:33:26.532Z,101277.41
2018-07-20T02:35:54.683Z,101277.74
2018-07-20T02:38:22.794Z,101274.44
2018-07-20T02:40:50.941Z,101275.45
2018-07-20T02:43:19.132Z,101265.88
2018-07-20T02:45:47.264Z,101272.19
2018-07-20T02:48:15.395Z,101276.43
2018-07-20T02:50:43.528Z,101272.23
2018-07-20T02:53:12.382Z,101274.44
2018-07-20T02:55:40.512Z,101275.39
2018-07-20T02:58:08.637Z,101273.38
2018-07-20T03:00:36.747Z,101267.60
2018-07-20T03:03:04.985Z,101269.47
2018-07-20T03:05:33.096Z,101276.13
2018-07-20T03:08:01.201Z,101275.07
2018-07-20T03:10:29.365Z,101273.21
2018-07-20T03:12:57.478Z,101266.39
2018-07-20T03:15:25.589Z,101272.82
2018-07-20T03:17:53.696Z,101268.30
2018-07-20T03:20:21.803Z,101269.02
2018-07-20T03:22:49.899Z,101271.85
2018-07-20T03:25:18.004Z,101268.98
2018-07-20T03:27:46.176Z,101266.22
2018-07-20T03:30:14.334Z,101268.17
2018-07-20T03:32:42.500Z,101266.13
2018-07-20T03:35:10.605Z,101270.66
2018-07-20T03:37:38.751Z,101273.59
2018-07-20T03:40:06.934Z,101274.78
2018-07-20T03:42:35.073Z,101275.83
2018-07-20T03:45:03.200Z,101277.58
2018-07-20T03:47:31.312Z,101272.16
2018-07-20T03:49:59.410Z,101274.61
2018-07-20T03:52:27.588Z,101267.45
2018-07-20T03:54:55.696Z,101274.73
2018-07-20T03:57:23.882Z,101274.44
2018-07-20T03:59:52.188Z,101273.03
2018-07-20T04:02:20.405Z,101261.64
2018-07-20T04:04:48.513Z,101270.11
2018-07-20T04:07:16.678Z,101268.80
2018-07-20T04:09:44.804Z,101263.95
2018-07-20T04:12:12.988Z,101264.16
2018-07-20T04:14:41.156Z,101262.64
2018-07-20T04:17:09.306Z,101264.44
2018-07-20T04:19:37.474Z,101256.30
2018-07-20T04:22:05.596Z,101260.61
2018-07-20T04:24:33.747Z,101260.36
2018-07-20T04:27:01.865Z,101260.27
2018-07-20T04:29:30.093Z,101262.88
2018-07-20T04:31:58.247Z,101260.61
2018-07-20T04:34:26.382Z,101259.97
2018-07-20T04:36:54.504Z,101268.88
2018-07-20T04:39:22.711Z,101257.24
2018-07-20T04:41:50.841Z,101260.64
2018-07-20T04:44:19.013Z,101254.73
2018-07-20T04:46:47.137Z,101258.40
2018-07-20T04:49:15.332Z,101258.37
2018-07-20T04:51:43.448Z,101262.40
2018-07-20T04:54:11.610Z,101264.86
2018-07-20T04:56:39.724Z,101261.83
2018-07-20T04:59:07.844Z,101260.58
2018-07-20T05:01:35.988Z,101263.36
2018-07-20T05:04:04.106Z,101262.02
2018-07-20T05:06:32.243Z,101257.03
2018-07-20T05:09:00.353Z,101260.91
2018-07-20T05:11:28.474Z,101256.85
2018-07-20T05:13:56.576Z,101258.49
2018-07-20T05:16:24.693Z,101257.92
2018-07-20T05:18:52.787Z,101261.13
2018-07-20T05:21:20.915Z,101261.10
2018-07-20T05:23:49.020Z,101257.30
2018-07-20T05:26:17.088Z,101253.95
2018-07-20T05:28:45.219Z,101259.28
2018-07-20T05:31:13.455Z,101262.52
2018-07-20T05:33:41.568Z,101261.64
2018-07-20T05:36:09.700Z,101259.67
2018-07-20T05:38:37.822Z,101261.14
2018-07-20T05:41:06.074Z,101260.87
2018-07-20T05:43:34.183Z,101258.04
2018-07-20T05:46:02.292Z,101253.04
2018-07-20T05:48:30.392Z,101250.61
2018-07-20T05:50:58.518Z,101249.79
2018-07-20T05:53:26.640Z,101260.39
2018-07-20T05:55:54.733Z,101255.86
2018-07-20T05:58:22.842Z,101259.44
2018-07-20T06:00:50.917Z,101255.08
2018-07-20T06:03:19.066Z,101249.45
2018-07-20T06:05:47.196Z,101252.97
2018-07-20T06:08:15.309Z,101253.75
2018-07-20T06:10:43.439Z,101256.01
2018-07-20T06:13:11.574Z,101257.25
2018-07-20T06:15:39.785Z,101250.67
2018-07-20T06:18:07.891Z,101252.89
2018-07-20T06:20:36.047Z,101259.31
2018-07-20T06:23:04.146Z,101260.90
2018-07-20T06:25:32.262Z,101260.70
2018-07-20T06:28:01.155Z,101259.83
2018-07-20T06:30:29.299Z,101258.63
2018-07-20T06:32:57.403Z,101257.51
2018-07-20T06:35:25.510Z,101253.52
2018-07-20T06:37:53.636Z,101255.95
2018-07-20T06:40:21.757Z,101257.36
2018-07-20T06:42:49.882Z,101258.88
2018-07-20T06:45:17.968Z,101258.01
2018-07-20T06:47:46.051Z,101263.53
2018-07-20T06:50:17.196Z,101265.65
2018-07-20T06:52:46.325Z,101255.93
2018-07-20T06:55:14.492Z,101259.77
2018-07-20T06:57:42.653Z,101254.95
2018-07-20T07:00:11.034Z,101262.46
2018-07-20T07:02:39.218Z,101265.81
2018-07-20T07:05:08.332Z,101260.08
2018-07-20T07:07:36.594Z,101257.72
2018-07-20T07:10:05.222Z,101265.48
2018-07-20T07:12:33.314Z,101264.34
2018-07-20T07:15:01.460Z,101262.12
2018-07-20T07:17:29.544Z,101266.89
2018-07-20T07:19:57.656Z,101258.27
2018-07-20T07:22:25.773Z,101263.83
2018-07-20T07:24:53.875Z,101272.02
2018-07-20T07:27:22.042Z,101276.38
2018-07-20T07:29:50.179Z,101268.31
2018-07-20T07:32:18.312Z,101264.72
2018-07-20T07:34:46.453Z,101274.39
2018-07-20T07:37:14.780Z,101273.02
2018-07-20T07:39:42.888Z,101266.98
2018-07-20T07:42:11.066Z,101269.93
2018-07-20T07:44:39.111Z,101263.31
2018-07-20T07:47:07.235Z,101264.44
2018-07-20T07:49:35.364Z,101267.31
2018-07-20T07:52:03.475Z,101263.09
2018-07-20T07:54:31.600Z,101265.91
2018-07-20T07:56:59.728Z,101263.00
2018-07-20T07:59:27.836Z,101257.13
2018-07-20T08:01:55.982Z,101255.16
2018-07-20T08:04:24.108Z,101250.44
2018-07-20T08:06:52.212Z,101258.45
2018-07-20T08:09:20.313Z,101252.22
2018-07-20T08:11:48.428Z,101251.38
2018-07-20T08:14:16.509Z,101252.19
2018-07-20T08:16:44.598Z,101245.50
2018-07-20T08:19:12.700Z,101242.63
2018-07-20T08:21:40.938Z,101244.02
2018-07-20T08:24:09.076Z,101244.55
2018-07-20T08:26:37.220Z,101239.96
2018-07-20T08:29:05.521Z,101232.06
2018-07-20T08:31:33.667Z,101229.66
2018-07-20T08:34:01.776Z,101230.11
2018-07-20T08:36:29.897Z,101227.58
2018-07-20T08:38:58.030Z,101229.91
2018-07-20T08:41:26.124Z,101231.86
2018-07-20T08:43:54.283Z,101226.33
2018-07-20T08:46:22.379Z,101223.11
2018-07-20T08:48:50.514Z,101223.98
2018-07-20T08:51:18.636Z,101220.92
2018-07-20T08:53:46.723Z,101215.60
2018-07-20T08:56:14.829Z,101215.19
2018-07-20T08:58:42.960Z,101224.34
2018-07-20T09:01:11.029Z,101216.44
2018-07-20T09:03:39.221Z,101213.23
2018-07-20T09:06:07.348Z,101214.00
2018-07-20T09:08:35.452Z,101213.10
2018-07-20T09:11:03.604Z,101215.59
2018-07-20T09:13:31.771Z,101214.02
2018-07-20T09:15:59.900Z,101212.27
2018-07-20T09:18:28.037Z,101212.44
2018-07-20T09:20:56.234Z,101211.58
2018-07-20T09:23:24.362Z,101204.00
2018-07-20T09:25:52.490Z,101199.55
2018-07-20T09:28:20.618Z,101205.69
2018-07-20T09:30:48.769Z,101196.69
2018-07-20T09:33:16.924Z,101190.02
2018-07-20T09:35:45.049Z,101192.02
2018-07-20T09:38:13.208Z,101197.54
2018-07-20T09:40:41.328Z,101201.46
2018-07-20T09:43:09.821Z,101193.69
2018-07-20T09:45:37.914Z,101191.25
2018-07-20T09:48:06.081Z,101190.70
2018-07-20T09:50:34.233Z,101187.55
2018-07-20T09:53:02.362Z,101187.17
2018-07-20T09:55:30.500Z,101190.16
2018-07-20T09:57:58.635Z,101187.00
2018-07-20T10:00:32.108Z,101191.35
2018-07-20T10:03:00.193Z,101189.75
2018-07-20T10:05:28.352Z,101185.73
2018-07-20T10:07:56.601Z,101185.09
2018-07-20T10:10:24.815Z,101180.48
2018-07-20T10:12:52.931Z,101181.64
2018-07-20T10:15:21.086Z,101192.02
2018-07-20T10:17:49.207Z,101184.30
2018-07-20T10:20:17.323Z,101182.45
2018-07-20T10:22:45.448Z,101182.93
2018-07-20T10:25:13.538Z,101182.81
2018-07-20T10:30:09.773Z,101175.22
2018-07-20T10:32:37.873Z,101178.10
2018-07-20T10:35:06.104Z,101178.78
2018-07-20T10:37:34.253Z,101172.43
2018-07-20T10:40:02.399Z,101175.11
2018-07-20T10:42:30.523Z,101170.76
2018-07-20T10:44:58.681Z,101170.77
2018-07-20T10:47:26.816Z,101161.23
2018-07-20T10:49:54.929Z,101163.40
2018-07-20T10:52:23.040Z,101166.59
2018-07-20T10:54:51.169Z,101160.34
2018-07-20T10:57:19.631Z,101162.52
2018-07-20T10:59:48.152Z,101164.74
2018-07-20T11:02:16.285Z,101154.84
2018-07-20T11:04:44.755Z,101156.00
2018-07-20T11:07:12.883Z,101159.80
2018-07-20T11:09:40.997Z,101148.98
2018-07-20T11:12:09.138Z,101149.80
2018-07-20T11:14:37.319Z,101157.19
2018-07-20T11:17:05.572Z,101155.54
2018-07-20T11:19:33.669Z,101155.03
2018-07-20T11:22:01.754Z,101158.50
2018-07-20T11:24:29.932Z,101145.10
2018-07-20T11:26:58.124Z,101146.62
2018-07-20T11:29:26.235Z,101145.06
2018-07-20T11:31:54.352Z,101147.97
2018-07-20T11:34:22.497Z,101142.88
2018-07-20T11:36:50.717Z,101140.64
2018-07-20T11:39:18.836Z,101133.13
2018-07-20T11:41:46.957Z,101139.97
2018-07-20T11:44:15.116Z,101133.95
2018-07-20T11:46:43.225Z,101129.13
2018-07-20T11:49:11.349Z,101131.11
2018-07-20T11:51:39.509Z,101128.26
2018-07-20T11:54:07.688Z,101122.34
2018-07-20T11:56:35.828Z,101116.08
2018-07-20T11:59:03.990Z,101121.28
2018-07-20T12:01:32.132Z,101113.75
2018-07-20T12:04:00.280Z,101107.60
2018-07-20T12:06:28.425Z,101113.70
2018-07-20T12:08:56.571Z,101107.41
2018-07-20T12:11:24.726Z,101103.00
2018-07-20T12:13:52.859Z,101097.98
2018-07-20T12:16:21.028Z,101098.41
2018-07-20T12:18:49.192Z,101097.63
2018-07-20T12:21:17.340Z,101105.86
2018-07-20T12:23:45.569Z,101099.52
2018-07-20T12:26:13.708Z,101101.37
2018-07-20T12:28:41.965Z,101088.55
2018-07-20T12:31:10.066Z,101077.80
2018-07-20T12:33:38.205Z,101078.11
2018-07-20T12:36:06.455Z,101078.64
2018-07-20T12:38:34.532Z,101085.98
2018-07-20T12:41:02.681Z,101076.47
2018-07-20T12:43:30.829Z,101071.18
2018-07-20T12:45:58.974Z,101071.84
2018-07-20T12:48:27.085Z,101065.39
2018-07-20T12:50:55.172Z,101068.57
2018-07-20T12:53:23.272Z,101070.78
2018-07-20T12:55:51.380Z,101074.94
2018-07-20T12:58:19.512Z,101065.50
2018-07-20T13:00:47.648Z,101072.45
2018-07-20T13:03:15.756Z,101062.98
2018-07-20T13:05:43.931Z,101063.22
2018-07-20T13:08:12.052Z,101062.73
2018-07-20T13:10:40.201Z,101061.02
2018-07-20T13:13:08.371Z,101058.66
2018-07-20T13:15:36.514Z,101057.67
2018-07-20T13:18:04.937Z,101052.64
2018-07-20T13:20:33.140Z,101049.14
2018-07-20T13:23:01.328Z,101050.03
2018-07-20T13:25:29.531Z,101041.89
2018-07-20T13:27:57.659Z,101043.09
2018-07-20T13:30:25.775Z,101042.16
2018-07-20T13:32:53.951Z,101041.19
2018-07-20T13:35:22.151Z,101040.08
2018-07-20T13:37:50.428Z,101032.03
2018-07-20T13:40:18.605Z,101037.28
2018-07-20T13:42:46.775Z,101029.58
2018-07-20T13:45:14.919Z,101034.27
2018-07-20T13:47:43.042Z,101025.98
2018-07-20T13:50:11.115Z,101018.28
2018-07-20T13:52:39.263Z,101021.74
2018-07-20T13:55:07.400Z,101016.36
2018-07-20T13:57:35.647Z,101020.89
2018-07-20T14:00:04.734Z,101010.48
2018-07-20T14:02:32.897Z,101006.94
2018-07-20T14:05:01.066Z,101005.45
2018-07-20T14:07:29.195Z,101010.66
2018-07-20T14:09:57.323Z,101000.29
2018-07-20T14:12:26.449Z,100994.66
2018-07-20T14:14:54.532Z,100995.36
2018-07-20T14:17:22.691Z,100988.66
2018-07-20T14:19:50.801Z,100991.17
2018-07-20T14:22:19.152Z,100992.26
2018-07-20T14:24:47.279Z,100987.20
2018-07-20T14:27:15.391Z,100985.27
2018-07-20T14:29:43.573Z,100977.78
2018-07-20T14:32:11.764Z,100973.61
2018-07-20T14:34:39.913Z,100975.13
2018-07-20T14:37:08.035Z,100979.48
2018-07-20T14:39:36.190Z,100969.17
2018-07-20T14:42:04.297Z,100974.02
2018-07-20T14:44:32.413Z,100967.05
2018-07-20T14:47:00.507Z,100973.00
2018-07-20T14:49:28.679Z,100973.08
2018-07-20T14:51:56.792Z,100974.47
2018-07-20T14:54:24.951Z,100964.70
2018-07-20T14:56:53.090Z,100959.75
2018-07-20T14:59:21.457Z,100956.05
2018-07-20T15:01:49.647Z,100959.76
2018-07-20T15:04:17.841Z,100960.31
2018-07-20T15:06:46.011Z,100958.41
2018-07-20T15:09:14.117Z,100953.25
2018-07-20T15:11:42.255Z,100955.09
2018-07-20T15:14:10.732Z,100954.83
2018-07-20T15:16:38.859Z,100954.59
2018-07-20T15:19:07.080Z,100949.63
2018-07-20T15:21:35.787Z,100953.52
2018-07-20T15:24:03.937Z,100952.88
2018-07-20T15:26:32.251Z,100950.73
2018-07-20T15:29:00.355Z,100954.73
2018-07-20T15:31:28.861Z,100954.41
2018-07-20T15:33:57.048Z,100955.59
2018-07-20T15:36:25.221Z,100958.18
2018-07-20T15:38:54.169Z,100956.08
2018-07-20T15:41:22.308Z,100953.08
2018-07-20T15:43:50.530Z,100955.94
2018-07-20T15:46:18.747Z,100956.09
2018-07-20T15:48:46.816Z,100957.66
2018-07-20T15:51:14.962Z,100953.09
2018-07-20T15:53:43.189Z,100947.88
2018-07-20T15:56:11.278Z,100949.48
2018-07-20T15:58:39.523Z,100944.61
2018-07-20T16:01:07.753Z,100941.02
2018-07-20T16:03:35.884Z,100941.03
2018-07-20T16:06:04.129Z,100935.48
2018-07-20T16:08:32.746Z,100929.39
2018-07-20T16:11:00.920Z,100931.36
2018-07-20T16:13:29.072Z,100927.80
2018-07-20T16:15:57.272Z,100925.02
2018-07-20T16:18:25.465Z,100922.81
2018-07-20T16:20:53.592Z,100918.92
2018-07-20T16:23:21.728Z,100921.32
2018-07-20T16:25:50.006Z,100915.46
2018-07-20T16:28:18.063Z,100914.70
2018-07-20T16:30:46.197Z,100916.80
2018-07-20T16:33:14.357Z,100911.75
2018-07-20T16:35:42.548Z,100908.24
2018-07-20T16:38:10.696Z,100900.11
2018-07-20T16:40:38.832Z,100901.72
2018-07-20T16:43:07.923Z,100900.61
2018-07-20T16:45:36.057Z,100905.30
2018-07-20T16:48:04.321Z,100897.78
2018-07-20T16:50:32.460Z,100897.94
2018-07-20T16:53:00.603Z,100898.03
2018-07-20T16:55:28.756Z,100888.39
2018-07-20T16:57:56.880Z,100884.81
2018-07-20T17:00:25.039Z,100880.72
2018-07-20T17:02:53.188Z,100873.12
2018-07-20T17:05:21.298Z,100878.64
2018-07-20T17:07:49.460Z,100879.98
2018-07-20T17:10:17.624Z,100873.81
2018-07-20T17:12:45.778Z,100877.02
2018-07-20T17:15:13.957Z,100877.70
2018-07-20T17:17:42.125Z,100874.31
2018-07-20T17:20:10.277Z,100875.98
2018-07-20T17:22:38.404Z,100873.97
2018-07-20T17:25:06.568Z,100876.08
2018-07-20T17:27:34.724Z,100874.23
2018-07-20T17:30:02.831Z,100869.91
2018-07-20T17:32:30.972Z,100876.92
2018-07-20T17:34:59.146Z,100871.08
2018-07-20T17:37:27.429Z,100871.20
2018-07-20T17:39:55.582Z,100872.73
2018-07-20T17:42:23.724Z,100871.25
2018-07-20T17:44:51.882Z,100872.41
2018-07-20T17:47:20.032Z,100875.48
2018-07-20T17:49:48.184Z,100872.86
2018-07-20T17:52:16.343Z,100870.69
2018-07-20T17:54:44.775Z,100873.73
2018-07-20T17:57:12.916Z,100881.41
2018-07-20T17:59:41.014Z,100876.06
2018-07-20T18:02:09.143Z,100877.72
2018-07-20T18:04:37.273Z,100878.57
2018-07-20T18:07:05.506Z,100879.07
2018-07-20T18:09:33.633Z,100883.39
2018-07-20T18:12:01.820Z,100883.05
2018-07-20T18:14:29.990Z,100875.52
2018-07-20T18:16:58.157Z,100879.14
2018-07-20T18:19:26.266Z,100878.45
2018-07-20T18:21:54.451Z,100882.61
2018-07-20T18:24:22.614Z,100883.07
2018-07-20T18:26:50.820Z,100880.03
2018-07-20T18:29:18.904Z,100883.65
2018-07-20T18:31:47.091Z,100885.11
2018-07-20T18:34:15.249Z,100884.91
2018-07-20T18:36:43.396Z,100888.35
2018-07-20T18:39:12.590Z,100887.15
2018-07-20T18:41:41.262Z,100893.59
2018-07-20T18:44:09.644Z,100884.70
2018-07-20T18:46:38.043Z,100886.28
2018-07-20T18:49:06.172Z,100884.06
2018-07-20T18:51:34.338Z,100887.87
2018-07-20T18:54:03.439Z,100876.30
2018-07-20T18:56:31.599Z,100886.88
2018-07-20T18:58:59.714Z,100884.67
2018-07-20T19:01:28.112Z,100892.16
2018-07-20T19:03:56.402Z,100888.49
2018-07-20T19:06:24.690Z,100887.42
2018-07-20T19:08:52.985Z,100890.86
2018-07-20T19:11:21.118Z,100888.55
2018-07-20T19:13:49.343Z,100888.78
2018-07-20T19:16:17.485Z,100890.67
2018-07-20T19:18:45.656Z,100883.92
2018-07-20T19:21:13.843Z,100888.61
2018-07-20T19:23:42.041Z,100890.75
2018-07-20T19:26:10.155Z,100888.82
2018-07-20T19:28:38.388Z,100889.55
2018-07-20T19:31:06.567Z,100887.23
2018-07-20T19:33:34.723Z,100889.33
2018-07-20T19:36:02.890Z,100887.39
2018-07-20T19:38:30.993Z,100899.03
2018-07-20T19:40:59.161Z,100896.52
2018-07-20T19:43:27.354Z,100895.89
2018-07-20T19:45:55.502Z,100905.41
2018-07-20T19:48:23.616Z,100906.27
2018-07-20T19:50:51.781Z,100901.16
2018-07-20T19:53:19.914Z,100898.57
2018-07-20T19:55:48.015Z,100899.08
2018-07-20T19:58:16.260Z,100899.86
2018-07-20T20:00:45.232Z,100897.53
2018-07-20T20:03:13.806Z,100892.63
2018-07-20T20:05:41.928Z,100897.02
2018-07-20T20:08:10.120Z,100897.73
2018-07-20T20:10:38.240Z,100903.67
2018-07-20T20:13:06.717Z,100901.59
2018-07-20T20:15:35.130Z,100900.31
2018-07-20T20:18:03.515Z,100908.45
2018-07-20T20:20:31.815Z,100905.52
2018-07-20T20:22:59.966Z,100909.00
2018-07-20T20:25:28.068Z,100911.14
2018-07-20T20:27:56.213Z,100911.67
2018-07-20T20:30:24.356Z,100910.02
2018-07-20T20:32:52.485Z,100918.75
2018-07-20T20:35:20.631Z,100915.78
2018-07-20T20:37:48.742Z,100917.36
2018-07-20T20:40:16.929Z,100920.59
2018-07-20T20:42:45.099Z,100925.98
2018-07-20T20:45:13.253Z,100929.25
2018-07-20T20:47:41.463Z,100925.41
2018-07-20T20:50:09.605Z,100923.50
2018-07-20T20:52:37.969Z,100922.17
2018-07-20T20:55:06.198Z,100923.84
2018-07-20T20:57:34.562Z,100924.52
2018-07-20T21:00:02.759Z,100922.36
2018-07-20T21:02:31.316Z,100921.43
2018-07-20T21:04:59.459Z,100918.20
2018-07-20T21:07:27.565Z,100914.41
2018-07-20T21:09:56.029Z,100913.94
2018-07-20T21:12:24.234Z,100917.91
2018-07-20T21:14:52.470Z,100918.29
2018-07-20T21:17:20.689Z,100924.42
2018-07-20T21:19:48.809Z,100931.86
2018-07-20T21:22:16.952Z,100929.58
2018-07-20T21:24:45.067Z,100922.13
2018-07-20T21:27:13.188Z,100929.70
2018-07-20T21:29:41.305Z,100920.70
2018-07-20T21:32:09.415Z,100926.59
2018-07-20T21:34:37.554Z,100927.53
2018-07-20T21:37:05.653Z,100917.81
2018-07-20T21:39:33.788Z,100922.38
2018-07-20T21:42:01.883Z,100923.44
2018-07-20T21:44:30.007Z,100923.83
2018-07-20T21:46:58.106Z,100922.04
2018-07-20T21:49:26.202Z,100933.55
2018-07-20T21:51:54.332Z,100936.31
2018-07-20T21:54:22.420Z,100930.77
2018-07-20T21:56:50.970Z,100939.06
2018-07-20T21:59:19.079Z,100946.97
2018-07-20T22:01:47.217Z,100943.13
2018-07-20T22:04:15.340Z,100938.14
2018-07-20T22:06:43.509Z,100939.10
2018-07-20T22:09:12.386Z,100943.29
2018-07-20T22:11:40.537Z,100940.38
2018-07-20T22:14:08.748Z,100943.58
2018-07-20T22:16:36.855Z,100940.77
2018-07-20T22:19:05.000Z,100938.69
2018-07-20T22:21:33.096Z,100937.38
2018-07-20T22:24:01.225Z,100937.48
2018-07-20T22:26:29.376Z,100931.00
2018-07-20T22:28:57.510Z,100931.30
2018-07-20T22:31:25.635Z,100931.03
2018-07-20T22:33:53.748Z,100928.61
2018-07-20T22:36:21.873Z,100924.33
2018-07-20T22:38:49.961Z,100920.48
2018-07-20T22:41:18.078Z,100925.86
2018-07-20T22:43:46.204Z,100929.84
2018-07-20T22:46:14.327Z,100929.72
2018-07-20T22:48:42.472Z,100926.17
2018-07-20T22:51:10.621Z,100925.67
2018-07-20T22:53:38.768Z,100924.98
2018-07-20T22:56:06.966Z,100927.95
2018-07-20T22:58:35.123Z,100915.50
2018-07-20T23:01:03.278Z,100920.58
2018-07-20T23:03:31.452Z,100920.64
2018-07-20T23:05:59.601Z,100924.06
2018-07-20T23:08:27.718Z,100921.16
2018-07-20T23:10:55.868Z,100914.87
2018-07-20T23:13:24.082Z,100913.33
2018-07-20T23:15:52.216Z,100911.95
2018-07-20T23:18:20.329Z,100898.92
2018-07-20T23:20:48.429Z,100900.51
2018-07-20T23:23:16.598Z,100898.03
2018-07-20T23:25:44.725Z,100897.30
2018-07-20T23:28:12.816Z,100894.66
2018-07-20T23:30:40.941Z,100892.92
2018-07-20T23:33:09.916Z,100891.23
2018-07-20T23:35:38.031Z,100893.28
2018-07-20T23:38:06.356Z,100898.30
2018-07-20T23:40:34.483Z,100897.25
2018-07-20T23:43:02.642Z,100894.47
2018-07-20T23:45:30.812Z,100894.92
2018-07-20T23:47:58.912Z,100896.83
2018-07-20T23:50:27.013Z,100895.19
2018-07-20T23:52:55.124Z,100894.77
2018-07-20T23:55:23.232Z,100894.13
2018-07-20T23:57:51.537Z,100894.36
